Time,TemperatureF,DewpointF,PressureIn,WindDirection,WindDirectionDegrees,WindSpeedMPH,WindSpeedGustMPH,Humidity,HourlyPrecipIn,Conditions,Clouds,dailyrainin,SoftwareType,DateUTC
2013-11-02 00:13:00,57.4,57.1,29.63,SSW,202,0.0,-999.0,99,-99.99,,,0.00,Acu-Link.com,2013-11-02 04:13:00,
2013-11-02 00:29:00,57.0,56.7,29.63,SSW,202,0.0,-999.0,99,-99.99,,,0.00,Acu-Link.com,2013-11-02 04:29:00,
2013-11-02 00:44:00,56.7,56.4,29.63,South,180,0.0,-999.0,99,-99.99,,,0.00,Acu-Link.com,2013-11-02 04:44:00,
2013-11-02 00:59:00,56.1,55.8,29.63,South,180,0.0,-999.0,99,-99.99,,,0.00,Acu-Link.com,2013-11-02 04:59:00,
2013-11-02 01:14:00,55.6,55.3,29.63,SSW,202,0.0,-999.0,99,-99.99,,,0.00,Acu-Link.com,2013-11-02 05:14:00,
2013-11-02 01:30:00,55.0,54.7,29.63,South,180,0.0,-999.0,99,-99.99,,,0.00,Acu-Link.com,2013-11-02 05:30:00,
2013-11-02 01:45:00,54.5,54.2,29.64,SSW,202,0.0,-999.0,99,-99.99,,,0.00,Acu-Link.com,2013-11-02 05:45:00,
2013-11-02 02:00:00,54.0,53.7,29.64,South,180,0.0,-999.0,99,-99.99,,,0.00,Acu-Link.com,2013-11-02 06:00:00,
2013-11-02 02:16:00,53.6,53.3,29.64,SSW,202,0.0,-999.0,99,-99.99,,,0.00,Acu-Link.com,2013-11-02 06:16:00,
2013-11-02 02:31:00,53.2,52.9,29.64,South,180,0.0,-999.0,99,-99.99,,,0.00,Acu-Link.com,2013-11-02 06:31:00,
2013-11-02 02:46:00,52.9,52.6,29.65,South,180,0.0,-999.0,99,-99.99,,,0.00,Acu-Link.com,2013-11-02 06:46:00,
2013-11-02 03:02:00,52.7,52.4,29.65,South,180,0.0,-999.0,99,-99.99,,,0.00,Acu-Link.com,2013-11-02 07:02:00,
2013-11-02 03:17:00,52.3,52.0,29.65,South,180,0.0,-999.0,99,-99.99,,,0.00,Acu-Link.com,2013-11-02 07:17:00,
2013-11-02 03:32:00,52.0,51.7,29.65,South,180,0.0,-999.0,99,-99.99,,,0.00,Acu-Link.com,2013-11-02 07:32:00,
2013-11-02 03:47:00,51.6,51.3,29.65,South,180,0.0,-999.0,99,-99.99,,,0.00,Acu-Link.com,2013-11-02 07:47:00,
2013-11-02 04:03:00,51.3,51.0,29.65,South,180,0.0,-999.0,99,-99.99,,,0.00,Acu-Link.com,2013-11-02 08:03:00,
2013-11-02 04:18:00,51.1,50.8,29.66,South,180,0.0,-999.0,99,-99.99,,,0.00,Acu-Link.com,2013-11-02 08:18:00,
2013-11-02 04:39:00,50.5,50.2,29.66,South,180,0.0,-999.0,99,-99.99,,,0.00,Acu-Link.com,2013-11-02 08:39:00,
2013-11-02 04:56:00,50.0,49.7,29.67,SSE,157,0.0,-999.0,99,-99.99,,,0.00,Acu-Link.com,2013-11-02 08:56:00,
2013-11-02 05:11:00,49.8,49.5,29.66,South,180,0.0,-999.0,99,-99.99,,,0.00,Acu-Link.com,2013-11-02 09:11:00,
2013-11-02 05:26:00,49.6,49.3,29.67,SE,135,0.0,-999.0,99,-99.99,,,0.00,Acu-Link.com,2013-11-02 09:26:00,
2013-11-02 05:41:00,49.3,49.0,29.67,South,180,0.0,-999.0,99,-99.99,,,0.00,Acu-Link.com,2013-11-02 09:41:00,
2013-11-02 05:56:00,48.9,48.6,29.67,SSE,157,0.0,-999.0,99,-99.99,,,0.00,Acu-Link.com,2013-11-02 09:56:00,
2013-11-02 06:11:00,48.7,48.4,29.67,SSE,157,0.0,-999.0,99,-99.99,,,0.00,Acu-Link.com,2013-11-02 10:11:00,
2013-11-02 06:27:00,48.6,48.3,29.67,South,180,0.0,-999.0,99,-99.99,,,0.00,Acu-Link.com,2013-11-02 10:27:00,
2013-11-02 06:42:00,48.2,47.9,29.68,SSE,157,0.0,-999.0,99,-99.99,,,0.00,Acu-Link.com,2013-11-02 10:42:00,
2013-11-02 06:57:00,47.3,47.0,29.69,South,180,0.0,-999.0,99,-99.99,,,0.00,Acu-Link.com,2013-11-02 10:57:00,
2013-11-02 07:13:00,47.1,46.8,29.69,SSE,157,0.0,-999.0,99,-99.99,,,0.00,Acu-Link.com,2013-11-02 11:13:00,
2013-11-02 07:28:00,46.8,46.5,29.71,SSE,157,0.0,-999.0,99,-99.99,,,0.00,Acu-Link.com,2013-11-02 11:28:00,
2013-11-02 07:43:00,46.8,46.5,29.71,South,180,0.0,-999.0,99,-99.99,,,0.00,Acu-Link.com,2013-11-02 11:43:00,
2013-11-02 07:58:00,46.8,46.5,29.71,South,180,0.0,-999.0,99,-99.99,,,0.00,Acu-Link.com,2013-11-02 11:58:00,
2013-11-02 08:14:00,46.8,46.5,29.71,SSE,157,0.0,-999.0,99,-99.99,,,0.00,Acu-Link.com,2013-11-02 12:14:00,
2013-11-02 08:29:00,46.6,46.3,29.72,SSW,202,0.0,-999.0,99,-99.99,,,0.00,Acu-Link.com,2013-11-02 12:29:00,
2013-11-02 08:44:00,46.6,46.3,29.72,West,270,0.0,-999.0,99,-99.99,,,0.00,Acu-Link.com,2013-11-02 12:44:00,
2013-11-02 09:00:00,47.1,46.8,29.72,SW,225,0.0,-999.0,99,-99.99,,,0.00,Acu-Link.com,2013-11-02 13:00:00,
2013-11-02 09:16:00,48.0,47.7,29.73,ESE,112,0.0,-999.0,99,-99.99,,,0.00,Acu-Link.com,2013-11-02 13:16:00,
2013-11-02 09:31:00,49.1,48.8,29.74,WSW,247,0.0,-999.0,99,-99.99,,,0.00,Acu-Link.com,2013-11-02 13:31:00,
2013-11-02 09:46:00,50.5,50.2,29.75,West,270,0.0,-999.0,99,-99.99,,,0.00,Acu-Link.com,2013-11-02 13:46:00,
2013-11-02 10:01:00,51.8,51.5,29.75,SSW,202,0.0,-999.0,99,-99.99,,,0.00,Acu-Link.com,2013-11-02 14:01:00,
2013-11-02 10:16:00,52.9,52.6,29.75,WSW,247,0.0,-999.0,99,-99.99,,,0.00,Acu-Link.com,2013-11-02 14:16:00,
2013-11-02 10:32:00,54.9,52.6,29.75,South,180,0.0,-999.0,92,-99.99,,,0.00,Acu-Link.com,2013-11-02 14:32:00,
2013-11-02 10:47:00,56.3,53.4,29.75,SSW,202,0.0,-999.0,90,-99.99,,,0.00,Acu-Link.com,2013-11-02 14:47:00,
2013-11-02 11:02:00,58.3,52.5,29.74,NNW,337,2.2,-999.0,81,-99.99,,,0.00,Acu-Link.com,2013-11-02 15:02:00,
2013-11-02 11:17:00,59.5,50.1,29.75,NW,315,3.7,-999.0,71,-99.99,,,0.00,Acu-Link.com,2013-11-02 15:17:00,
2013-11-02 11:32:00,61.2,52.5,29.75,North,0,0.0,-999.0,73,-99.99,,,0.00,Acu-Link.com,2013-11-02 15:32:00,
2013-11-02 11:47:00,62.8,51.3,29.75,NW,315,2.2,-999.0,66,-99.99,,,0.00,Acu-Link.com,2013-11-02 15:47:00,
2013-11-02 12:03:00,64.2,49.1,29.75,NE,45,2.2,-999.0,58,-99.99,,,0.00,Acu-Link.com,2013-11-02 16:03:00,
2013-11-02 12:18:00,64.9,48.3,29.74,WNW,292,2.2,-999.0,55,-99.99,,,0.00,Acu-Link.com,2013-11-02 16:18:00,
2013-11-02 12:33:00,64.4,52.4,29.74,NNW,337,0.0,-999.0,65,-99.99,,,0.00,Acu-Link.com,2013-11-02 16:33:00,
2013-11-02 12:48:00,64.9,47.9,29.74,West,270,1.7,-999.0,54,-99.99,,,0.00,Acu-Link.com,2013-11-02 16:48:00,
2013-11-02 13:03:00,66.2,47.0,29.73,SW,225,0.0,-999.0,50,-99.99,,,0.00,Acu-Link.com,2013-11-02 17:03:00,
2013-11-02 13:20:00,66.9,48.2,29.72,West,270,2.7,-999.0,51,-99.99,,,0.00,Acu-Link.com,2013-11-02 17:20:00,
2013-11-02 13:35:00,67.1,46.2,29.72,ESE,112,3.7,-999.0,47,-99.99,,,0.00,Acu-Link.com,2013-11-02 17:35:00,
2013-11-02 13:50:00,68.0,49.7,29.70,West,270,1.7,-999.0,52,-99.99,,,0.00,Acu-Link.com,2013-11-02 17:50:00,
2013-11-02 14:05:00,71.2,48.8,29.70,WNW,292,1.1,-999.0,45,-99.99,,,0.00,Acu-Link.com,2013-11-02 18:05:00,
2013-11-02 14:20:00,69.8,45.7,29.69,WNW,292,2.2,-999.0,42,-99.99,,,0.00,Acu-Link.com,2013-11-02 18:20:00,
2013-11-02 14:36:00,67.8,47.4,29.69,South,180,3.2,-999.0,48,-99.99,,,0.00,Acu-Link.com,2013-11-02 18:36:00,
2013-11-02 14:53:00,64.4,47.9,29.70,SW,225,2.2,-999.0,55,-99.99,,,0.00,Acu-Link.com,2013-11-02 18:53:00,
2013-11-02 15:09:00,60.8,51.3,29.70,South,180,0.0,-999.0,71,-99.99,,,0.00,Acu-Link.com,2013-11-02 19:09:00,
2013-11-02 15:25:00,57.6,52.8,29.70,South,180,0.0,-999.0,84,-99.99,,,0.00,Acu-Link.com,2013-11-02 19:25:00,
2013-11-02 15:40:00,58.1,53.6,29.69,WSW,247,0.0,-999.0,85,-99.99,,,0.00,Acu-Link.com,2013-11-02 19:40:00,
2013-11-02 15:55:00,58.3,51.1,29.69,South,180,0.0,-999.0,77,-99.99,,,0.00,Acu-Link.com,2013-11-02 19:55:00,
2013-11-02 16:10:00,59.2,50.9,29.69,WSW,247,1.7,-999.0,74,-99.99,,,0.00,Acu-Link.com,2013-11-02 20:10:00,
2013-11-02 16:26:00,60.4,46.9,29.70,NW,315,0.0,-999.0,61,-99.99,,,0.00,Acu-Link.com,2013-11-02 20:26:00,
2013-11-02 16:41:00,59.9,47.7,29.70,SSE,157,0.0,-999.0,64,-99.99,,,0.00,Acu-Link.com,2013-11-02 20:41:00,
2013-11-02 16:56:00,60.6,48.4,29.70,SSE,157,0.0,-999.0,64,-99.99,,,0.00,Acu-Link.com,2013-11-02 20:56:00,
2013-11-02 17:11:00,60.4,48.2,29.71,NW,315,3.7,-999.0,64,-99.99,,,0.00,Acu-Link.com,2013-11-02 21:11:00,
2013-11-02 17:26:00,61.7,43.4,29.71,West,270,0.0,-999.0,51,-99.99,,,0.00,Acu-Link.com,2013-11-02 21:26:00,
2013-11-02 17:41:00,61.0,45.7,29.71,SSW,202,0.0,-999.0,57,-99.99,,,0.00,Acu-Link.com,2013-11-02 21:41:00,
2013-11-02 17:57:00,61.2,42.9,29.72,WNW,292,2.2,-999.0,51,-99.99,,,0.00,Acu-Link.com,2013-11-02 21:57:00,
2013-11-02 18:12:00,61.2,40.8,29.73,WNW,292,3.2,-999.0,47,-99.99,,,0.00,Acu-Link.com,2013-11-02 22:12:00,
2013-11-02 18:27:00,60.8,42.6,29.73,WNW,292,0.0,-999.0,51,-99.99,,,0.00,Acu-Link.com,2013-11-02 22:27:00,
2013-11-02 18:42:00,59.5,45.2,29.75,SSW,202,0.0,-999.0,59,-99.99,,,0.00,Acu-Link.com,2013-11-02 22:42:00,
2013-11-02 18:58:00,57.7,46.8,29.75,SE,135,0.0,-999.0,67,-99.99,,,0.00,Acu-Link.com,2013-11-02 22:58:00,
2013-11-02 19:13:00,57.0,43.3,29.77,NW,315,2.2,-999.0,60,-99.99,,,0.00,Acu-Link.com,2013-11-02 23:13:00,
2013-11-02 19:28:00,57.6,41.1,29.78,WNW,292,2.7,-999.0,54,-99.99,,,0.00,Acu-Link.com,2013-11-02 23:28:00,
2013-11-02 19:44:00,57.4,40.9,29.79,NW,315,2.2,-999.0,54,-99.99,,,0.00,Acu-Link.com,2013-11-02 23:44:00,
2013-11-02 20:00:00,56.7,42.5,29.80,SSE,157,0.0,-999.0,59,-99.99,,,0.00,Acu-Link.com,2013-11-03 00:00:00,
2013-11-02 20:15:00,54.7,46.2,29.81,South,180,0.0,-999.0,73,-99.99,,,0.00,Acu-Link.com,2013-11-03 00:15:00,
2013-11-02 20:30:00,54.1,42.2,29.82,WSW,247,0.0,-999.0,64,-99.99,,,0.00,Acu-Link.com,2013-11-03 00:30:00,
2013-11-02 20:45:00,52.9,44.8,29.82,SSE,157,0.0,-999.0,74,-99.99,,,0.00,Acu-Link.com,2013-11-03 00:45:00,
2013-11-02 21:00:00,52.2,44.5,29.83,SSE,157,0.0,-999.0,75,-99.99,,,0.00,Acu-Link.com,2013-11-03 01:00:00,
2013-11-02 21:16:00,51.6,43.9,29.84,SW,225,0.0,-999.0,75,-99.99,,,0.00,Acu-Link.com,2013-11-03 01:16:00,
2013-11-02 21:31:00,52.0,41.4,29.84,SSW,202,1.1,-999.0,67,-99.99,,,0.00,Acu-Link.com,2013-11-03 01:31:00,
2013-11-02 21:46:00,53.2,41.7,29.85,NW,315,0.0,-999.0,65,-99.99,,,0.00,Acu-Link.com,2013-11-03 01:46:00,
2013-11-02 22:01:00,52.3,42.4,29.85,WNW,292,1.1,-999.0,69,-99.99,,,0.00,Acu-Link.com,2013-11-03 02:01:00,
2013-11-02 22:16:00,51.1,44.1,29.86,WSW,247,0.0,-999.0,77,-99.99,,,0.00,Acu-Link.com,2013-11-03 02:16:00,
2013-11-02 22:31:00,50.5,42.5,29.87,SW,225,0.0,-999.0,74,-99.99,,,0.00,Acu-Link.com,2013-11-03 02:31:00,
2013-11-02 22:46:00,49.8,43.2,29.87,SSW,202,0.0,-999.0,78,-99.99,,,0.00,Acu-Link.com,2013-11-03 02:46:00,
2013-11-02 23:01:00,48.9,42.3,29.88,SE,135,0.0,-999.0,78,-99.99,,,0.00,Acu-Link.com,2013-11-03 03:01:00,
2013-11-02 23:17:00,48.6,43.4,29.89,SSE,157,0.0,-999.0,82,-99.99,,,0.00,Acu-Link.com,2013-11-03 03:17:00,
2013-11-02 23:32:00,47.7,43.1,29.89,SSE,157,0.0,-999.0,84,-99.99,,,0.00,Acu-Link.com,2013-11-03 03:32:00,
2013-11-02 23:47:00,47.1,42.8,29.89,SSE,157,0.0,-999.0,85,-99.99,,,0.00,Acu-Link.com,2013-11-03 03:47:00,